createdAt,value
2019-04-04T00:01:00.829Z,6.35
2019-04-04T00:03:29.098Z,6.97
2019-04-04T00:05:57.413Z,5.62
2019-04-04T00:08:25.695Z,6.28
2019-04-04T00:10:53.947Z,7.22
2019-04-04T00:13:22.198Z,6.95
2019-04-04T00:15:50.475Z,6.97
2019-04-04T00:18:18.723Z,6.92
2019-04-04T00:20:47.001Z,7.47
2019-04-04T00:23:15.265Z,8.03
2019-04-04T00:25:43.521Z,6.92
2019-04-04T00:28:14.618Z,8.10
2019-04-04T00:30:41.757Z,9.83
2019-04-04T00:33:09.983Z,7.40
2019-04-04T00:35:38.245Z,8.20
2019-04-04T00:38:06.955Z,8.13
2019-04-04T00:40:35.917Z,8.10
2019-04-04T00:43:04.137Z,7.03
2019-04-04T00:45:32.420Z,6.17
2019-04-04T00:48:01.096Z,8.55
2019-04-04T00:50:30.653Z,7.65
2019-04-04T00:52:58.885Z,8.38
2019-04-04T00:55:27.164Z,9.93
2019-04-04T00:57:55.398Z,9.20
2019-04-04T01:00:24.072Z,8.23
2019-04-04T01:02:52.884Z,9.35
2019-04-04T01:05:21.160Z,8.10
2019-04-04T01:07:49.386Z,9.03
2019-04-04T01:10:18.935Z,9.05
2019-04-04T01:12:47.783Z,10.48
2019-04-04T01:15:16.734Z,8.43
2019-04-04T01:17:44.964Z,8.40
2019-04-04T01:20:13.228Z,7.65
2019-04-04T01:22:41.469Z,7.95
2019-04-04T01:25:09.736Z,7.80
2019-04-04T01:27:37.958Z,7.97
2019-04-04T01:30:07.002Z,6.90
2019-04-04T01:32:35.367Z,7.70
2019-04-04T01:35:05.370Z,7.17
2019-04-04T01:37:33.604Z,7.53
2019-04-04T01:40:02.226Z,8.60
2019-04-04T01:42:30.987Z,10.35
2019-04-04T01:44:59.268Z,10.35
2019-04-04T01:47:27.503Z,9.68
2019-04-04T01:49:55.780Z,10.85
2019-04-04T01:52:24.007Z,9.48
2019-04-04T01:54:52.252Z,10.65
2019-04-04T01:57:20.519Z,11.35
2019-04-04T01:59:48.759Z,11.08
2019-04-04T02:02:18.484Z,11.22
2019-04-04T02:04:46.839Z,11.38
2019-04-04T02:07:15.113Z,12.90
2019-04-04T02:09:43.570Z,11.53
2019-04-04T02:12:11.905Z,11.08
2019-04-04T02:14:42.740Z,11.08
2019-04-04T02:17:10.144Z,11.38
2019-04-04T02:19:38.376Z,11.88
2019-04-04T02:22:06.648Z,11.08
2019-04-04T02:24:34.879Z,10.85
2019-04-04T02:27:04.923Z,10.08
2019-04-04T02:29:33.120Z,12.43
2019-04-04T02:32:03.052Z,14.03
2019-04-04T02:34:31.284Z,12.90
2019-04-04T02:36:59.561Z,12.85
2019-04-04T02:39:27.807Z,11.38
2019-04-04T02:41:56.109Z,14.83
2019-04-04T02:44:24.349Z,13.90
2019-04-04T02:46:52.637Z,13.20
2019-04-04T02:49:20.877Z,12.85
2019-04-04T02:51:49.137Z,13.80
2019-04-04T02:54:17.383Z,14.33
2019-04-04T02:56:45.651Z,14.68
2019-04-04T02:59:13.899Z,14.63
2019-04-04T03:01:42.168Z,12.50
2019-04-04T03:04:13.652Z,13.25
2019-04-04T03:06:40.417Z,13.95
2019-04-04T03:09:09.990Z,14.63
2019-04-04T03:11:38.701Z,15.15
2019-04-04T03:14:06.967Z,14.35
2019-04-04T03:16:35.205Z,12.35
2019-04-04T03:19:03.506Z,13.15
2019-04-04T03:21:31.741Z,11.18
2019-04-04T03:24:00.017Z,10.65
2019-04-04T03:26:28.243Z,8.78
2019-04-04T03:28:56.523Z,9.25
2019-04-04T03:31:24.889Z,8.98
2019-04-04T03:33:53.164Z,10.23
2019-04-04T03:36:21.432Z,10.98
2019-04-04T03:38:49.695Z,10.88
2019-04-04T03:41:17.948Z,12.68
2019-04-04T03:43:48.850Z,10.53
2019-04-04T03:46:16.175Z,13.60
2019-04-04T03:48:44.419Z,11.75
2019-04-04T03:51:12.725Z,13.60
2019-04-04T03:53:42.608Z,14.87
2019-04-04T03:56:10.858Z,14.60
2019-04-04T03:58:39.172Z,18.57
2019-04-04T04:01:12.045Z,18.75
2019-04-04T04:03:37.398Z,16.85
2019-04-04T04:06:08.753Z,16.57
2019-04-04T04:08:35.835Z,19.67
2019-04-04T04:11:05.783Z,15.90
2019-04-04T04:13:34.097Z,18.95
2019-04-04T04:16:03.713Z,20.80
2019-04-04T04:18:32.190Z,20.55
2019-04-04T04:21:00.428Z,18.30
2019-04-04T04:23:28.706Z,18.75
2019-04-04T04:25:56.956Z,18.42
2019-04-04T04:28:25.230Z,25.05
2019-04-04T04:30:53.484Z,18.77
2019-04-04T04:33:21.757Z,21.12
2019-04-04T04:35:50.009Z,20.37
2019-04-04T04:38:18.277Z,19.12
2019-04-04T04:40:47.365Z,21.80
2019-04-04T04:43:16.463Z,21.27
2019-04-04T04:45:45.239Z,19.12
2019-04-04T04:48:13.542Z,21.85
2019-04-04T04:50:41.777Z,19.67
2019-04-04T04:53:10.066Z,21.90
2019-04-04T04:55:38.295Z,23.20
2019-04-04T04:58:09.828Z,24.27
2019-04-04T05:00:36.573Z,20.17
2019-04-04T05:03:04.819Z,20.80
2019-04-04T05:05:33.233Z,20.55
2019-04-04T05:08:01.479Z,20.90
2019-04-04T05:10:32.948Z,20.68
2019-04-04T05:13:01.193Z,20.17
2019-04-04T05:15:30.436Z,21.65
2019-04-04T05:17:59.429Z,21.12
2019-04-04T05:20:29.859Z,21.75
2019-04-04T05:22:57.691Z,22.20
2019-04-04T05:25:25.935Z,21.95
2019-04-04T05:27:54.229Z,21.17
2019-04-04T05:30:22.473Z,21.90
2019-04-04T05:32:53.112Z,23.20
2019-04-04T05:35:20.790Z,23.70
2019-04-04T05:37:49.050Z,24.30
2019-04-04T05:40:17.287Z,22.32
2019-04-04T05:42:45.579Z,21.07
2019-04-04T05:45:14.276Z,21.48
2019-04-04T05:47:43.404Z,22.60
2019-04-04T05:50:12.089Z,20.68
2019-04-04T05:52:40.483Z,20.57
2019-04-04T05:55:10.819Z,20.50
2019-04-04T05:57:38.694Z,20.17
2019-04-04T06:00:07.999Z,20.60
2019-04-04T06:02:36.242Z,21.90
2019-04-04T06:05:06.165Z,24.15
2019-04-04T06:07:36.404Z,24.45
2019-04-04T06:10:06.164Z,21.73
2019-04-04T06:12:37.296Z,20.05
2019-04-04T06:15:05.744Z,17.50
2019-04-04T06:17:33.988Z,19.73
2019-04-04T06:20:02.338Z,19.65
2019-04-04T06:22:30.578Z,20.88
2019-04-04T06:24:59.341Z,18.65
2019-04-04T06:27:28.282Z,20.77
2019-04-04T06:29:56.555Z,19.80
2019-04-04T06:32:24.800Z,21.30
2019-04-04T06:34:53.034Z,19.30
2019-04-04T06:37:21.318Z,26.80
2019-04-04T06:39:49.556Z,28.80
2019-04-04T06:42:17.837Z,28.02
2019-04-04T06:44:46.077Z,24.80
2019-04-04T06:47:16.450Z,24.82
2019-04-04T06:49:45.816Z,24.57
2019-04-04T06:52:16.249Z,26.33
2019-04-04T06:54:44.273Z,33.85
2019-04-04T06:57:12.605Z,29.25
2019-04-04T06:59:42.989Z,29.18
2019-04-04T07:02:10.811Z,28.30
2019-04-04T07:04:39.083Z,30.88
2019-04-04T07:07:07.323Z,27.82
2019-04-04T07:09:37.241Z,28.60
2019-04-04T07:12:06.769Z,28.05
2019-04-04T07:14:45.441Z,29.85
2019-04-04T07:17:08.293Z,32.00
2019-04-04T07:19:35.452Z,33.50
2019-04-04T07:22:03.702Z,34.58
2019-04-04T07:24:31.939Z,36.70
2019-04-04T07:27:00.226Z,35.52
2019-04-04T07:29:28.464Z,36.10
2019-04-04T07:31:56.985Z,36.48
2019-04-04T07:34:25.237Z,38.80
2019-04-04T07:36:53.519Z,37.20
2019-04-04T07:39:21.753Z,35.52
2019-04-04T07:41:50.035Z,39.92
2019-04-04T07:44:18.276Z,36.53
2019-04-04T07:46:46.554Z,35.40
2019-04-04T07:49:14.871Z,39.18
2019-04-04T07:51:43.148Z,38.05
2019-04-04T07:54:11.404Z,39.27
2019-04-04T07:56:39.704Z,42.85
2019-04-04T07:59:07.951Z,39.88
2019-04-04T08:01:36.184Z,39.75
2019-04-04T08:04:06.633Z,39.38
2019-04-04T08:06:34.456Z,43.13
2019-04-04T08:09:04.388Z,42.20
2019-04-04T08:11:32.625Z,45.58
2019-04-04T08:14:01.274Z,50.08
2019-04-04T08:16:29.684Z,48.60
2019-04-04T08:18:58.040Z,53.52
2019-04-04T08:21:26.290Z,50.58
2019-04-04T08:23:54.530Z,49.45
2019-04-04T08:26:22.826Z,49.13
2019-04-04T08:28:51.087Z,47.78
2019-04-04T08:31:19.345Z,48.28
2019-04-04T08:33:47.596Z,47.65
2019-04-04T08:36:15.858Z,49.70
2019-04-04T08:38:44.089Z,50.58
2019-04-04T08:41:12.365Z,51.37
2019-04-04T08:43:40.610Z,47.25
2019-04-04T08:46:08.887Z,41.60
2019-04-04T08:48:37.133Z,39.55
2019-04-04T08:51:05.371Z,40.00
2019-04-04T08:53:39.787Z,43.30
2019-04-04T08:56:03.734Z,41.15
2019-04-04T08:58:32.017Z,44.77
2019-04-04T09:01:00.269Z,47.45
2019-04-04T09:03:28.537Z,45.78
2019-04-04T09:05:56.773Z,42.10
2019-04-04T09:08:25.041Z,41.53
2019-04-04T09:10:53.290Z,43.08
2019-04-04T09:13:21.565Z,43.38
2019-04-04T09:15:49.813Z,45.35
2019-04-04T09:18:18.095Z,43.45
2019-04-04T09:20:46.336Z,43.17
2019-04-04T09:23:14.610Z,40.35
2019-04-04T09:25:43.216Z,39.18
2019-04-04T09:28:11.510Z,38.40
2019-04-04T09:30:39.758Z,37.83
2019-04-04T09:33:08.006Z,37.83
2019-04-04T09:35:36.289Z,37.65
2019-04-04T09:38:04.515Z,36.93
2019-04-04T09:40:32.788Z,37.15
2019-04-04T09:43:01.027Z,40.43
2019-04-04T09:45:29.336Z,38.53
2019-04-04T09:47:57.618Z,40.55
2019-04-04T09:50:25.852Z,39.20
2019-04-04T09:52:54.134Z,37.58
2019-04-04T09:55:22.368Z,37.05
2019-04-04T09:57:50.644Z,38.17
2019-04-04T10:00:20.051Z,36.10
2019-04-04T10:02:48.323Z,37.38
2019-04-04T10:05:16.566Z,35.43
2019-04-04T10:07:44.840Z,37.28
2019-04-04T10:10:13.154Z,35.13
2019-04-04T10:12:41.425Z,34.70
2019-04-04T10:15:09.657Z,36.60
2019-04-04T10:17:37.939Z,33.20
2019-04-04T10:20:09.741Z,34.63
2019-04-04T10:22:38.017Z,32.67
2019-04-04T10:25:06.253Z,31.05
2019-04-04T10:27:34.497Z,31.20
2019-04-04T10:30:02.843Z,32.88
2019-04-04T10:32:31.100Z,33.88
2019-04-04T10:34:59.367Z,31.07
2019-04-04T10:37:27.607Z,33.25
2019-04-04T10:39:55.887Z,29.77
2019-04-04T10:42:24.117Z,30.77
2019-04-04T10:44:52.427Z,28.65
2019-04-04T10:47:20.668Z,30.72
2019-04-04T10:49:48.913Z,31.80
2019-04-04T10:52:17.181Z,31.77
2019-04-04T10:54:45.415Z,32.53
2019-04-04T10:57:13.681Z,32.83
2019-04-04T10:59:41.922Z,32.48
2019-04-04T11:02:10.194Z,32.28
2019-04-04T11:04:38.510Z,32.03
2019-04-04T11:07:06.818Z,32.98
2019-04-04T11:09:41.716Z,33.40
2019-04-04T11:12:05.025Z,35.38
2019-04-04T11:14:33.307Z,33.73
2019-04-04T11:17:01.547Z,35.80
2019-04-04T11:19:31.445Z,36.70
2019-04-04T11:21:59.868Z,37.20
2019-04-04T11:24:28.142Z,33.73
2019-04-04T11:26:56.384Z,36.30
2019-04-04T11:29:24.660Z,38.42
2019-04-04T11:31:52.900Z,35.05
2019-04-04T11:34:21.169Z,36.95
2019-04-04T11:36:49.478Z,36.83
2019-04-04T11:39:18.293Z,38.30
2019-04-04T11:41:46.585Z,39.53
2019-04-04T11:44:14.814Z,51.75
2019-04-04T11:46:43.080Z,73.70
2019-04-04T11:49:11.317Z,76.33
2019-04-04T11:51:39.578Z,74.37
2019-04-04T11:54:07.827Z,76.60
2019-04-04T11:56:36.100Z,77.47
2019-04-04T11:59:04.336Z,68.50
2019-04-04T12:01:37.048Z,64.82
2019-04-04T12:04:05.289Z,60.50
2019-04-04T12:06:33.574Z,67.82
2019-04-04T12:09:01.815Z,72.32
2019-04-04T12:11:30.053Z,69.10
2019-04-04T12:13:58.321Z,68.35
2019-04-04T12:16:26.569Z,66.72
2019-04-04T12:18:54.850Z,69.37
2019-04-04T12:21:23.085Z,74.32
2019-04-04T12:23:51.675Z,64.12
2019-04-04T12:26:20.086Z,57.53
2019-04-04T12:28:48.328Z,51.00
2019-04-04T12:31:16.596Z,53.60
2019-04-04T12:33:44.864Z,49.98
2019-04-04T12:36:24.079Z,49.85
2019-04-04T12:38:43.099Z,47.15
2019-04-04T12:41:11.387Z,43.58
2019-04-04T12:43:39.636Z,41.42
2019-04-04T12:46:07.916Z,39.88
2019-04-04T12:48:36.154Z,41.75
2019-04-04T12:51:04.437Z,42.50
2019-04-04T12:53:32.990Z,44.18
2019-04-04T12:56:01.644Z,43.35
2019-04-04T12:58:29.886Z,43.73
2019-04-04T13:00:58.134Z,45.88
2019-04-04T13:03:26.406Z,41.33
2019-04-04T13:05:54.640Z,39.60
2019-04-04T13:08:22.908Z,36.40
2019-04-04T13:10:51.150Z,36.68
2019-04-04T13:13:19.420Z,37.70
2019-04-04T13:15:47.659Z,37.13
2019-04-04T13:18:15.944Z,37.67
2019-04-04T13:20:44.179Z,33.78
2019-04-04T13:23:12.431Z,33.67
2019-04-04T13:25:40.720Z,36.05
2019-04-04T13:28:08.968Z,36.45
2019-04-04T13:30:37.240Z,37.63
2019-04-04T13:33:05.483Z,39.08
2019-04-04T13:35:33.756Z,39.27
2019-04-04T13:38:02.063Z,37.70
2019-04-04T13:40:30.351Z,39.48
2019-04-04T13:42:58.599Z,43.20
2019-04-04T13:45:26.873Z,44.42
2019-04-04T13:47:56.037Z,43.85
2019-04-04T13:50:24.349Z,40.88
2019-04-04T13:52:52.592Z,49.18
2019-04-04T13:55:20.841Z,44.15
2019-04-04T13:57:49.124Z,45.05
2019-04-04T14:00:17.374Z,41.37
2019-04-04T14:02:45.651Z,37.08
2019-04-04T14:05:14.485Z,45.67
2019-04-04T14:07:43.903Z,42.20
2019-04-04T14:10:12.475Z,39.10
2019-04-04T14:12:40.754Z,41.85
2019-04-04T14:15:09.757Z,47.33
2019-04-04T14:17:38.026Z,47.98
2019-04-04T14:20:10.860Z,50.10
2019-04-04T14:22:39.142Z,50.48
2019-04-04T14:25:08.058Z,51.40
2019-04-04T14:27:36.303Z,45.63
2019-04-04T14:30:05.914Z,45.78
2019-04-04T14:32:34.158Z,44.33
2019-04-04T14:35:02.419Z,49.95
2019-04-04T14:37:30.654Z,46.33
2019-04-04T14:39:58.918Z,46.73
2019-04-04T14:42:27.164Z,46.20
2019-04-04T14:44:55.460Z,48.38
2019-04-04T14:47:23.702Z,54.30
2019-04-04T14:49:51.960Z,52.58
2019-04-04T14:52:20.686Z,50.92
2019-04-04T14:54:49.021Z,56.28
2019-04-04T14:57:17.286Z,52.50
2019-04-04T14:59:45.528Z,50.48
2019-04-04T15:02:13.802Z,48.55
2019-04-04T15:04:42.052Z,50.05
2019-04-04T15:07:10.327Z,49.88
2019-04-04T15:09:38.565Z,50.08
2019-04-04T15:12:06.856Z,47.80
2019-04-04T15:14:35.090Z,47.27
2019-04-04T15:17:03.476Z,45.45
2019-04-04T15:19:31.714Z,45.83
2019-04-04T15:21:59.987Z,45.67
2019-04-04T15:24:28.225Z,49.95
2019-04-04T15:26:56.494Z,45.38
2019-04-04T15:29:24.771Z,47.75
2019-04-04T15:31:52.995Z,48.70
2019-04-04T15:34:21.272Z,47.93
2019-04-04T15:36:49.501Z,44.10
2019-04-04T15:39:17.777Z,47.43
2019-04-04T15:41:46.032Z,47.45
2019-04-04T15:44:14.304Z,52.25
2019-04-04T15:46:42.547Z,51.37
2019-04-04T15:49:10.848Z,49.90
2019-04-04T15:51:39.088Z,49.53
2019-04-04T15:54:07.360Z,50.17
2019-04-04T15:56:35.610Z,54.35
2019-04-04T15:59:03.881Z,55.12
2019-04-04T16:01:32.126Z,54.90
2019-04-04T16:04:00.404Z,54.67
2019-04-04T16:06:28.654Z,57.95
2019-04-04T16:08:56.933Z,57.45
2019-04-04T16:11:25.172Z,64.95
2019-04-04T16:13:53.522Z,57.43
2019-04-04T16:16:21.769Z,59.05
2019-04-04T16:18:50.039Z,58.42
2019-04-04T16:21:18.320Z,60.33
2019-04-04T16:23:46.541Z,59.53
2019-04-04T16:26:14.782Z,59.63
2019-04-04T16:28:43.062Z,59.05
2019-04-04T16:31:11.332Z,58.15
2019-04-04T16:33:39.668Z,62.55
2019-04-04T16:36:08.092Z,65.80
2019-04-04T16:38:36.376Z,67.82
2019-04-04T16:41:04.621Z,65.57
2019-04-04T16:43:33.102Z,66.45
2019-04-04T16:46:01.349Z,70.50
2019-04-04T16:48:29.628Z,62.83
2019-04-04T16:50:57.867Z,67.90
2019-04-04T16:53:26.146Z,78.17
2019-04-04T16:55:54.383Z,76.45
2019-04-04T16:58:22.658Z,79.62
2019-04-04T17:00:50.895Z,73.02
2019-04-04T17:03:19.185Z,76.95
2019-04-04T17:05:47.415Z,74.55
2019-04-04T17:08:15.675Z,81.47
2019-04-04T17:10:44.301Z,76.67
2019-04-04T17:13:12.545Z,78.70
2019-04-04T17:15:40.837Z,89.05
2019-04-04T17:18:09.072Z,87.02
2019-04-04T17:20:37.349Z,90.25
2019-04-04T17:23:05.605Z,93.22
2019-04-04T17:25:33.887Z,89.22
2019-04-04T17:28:02.335Z,104.15
2019-04-04T17:30:31.355Z,92.62
2019-04-04T17:32:59.988Z,97.37
2019-04-04T17:35:28.340Z,92.47
2019-04-04T17:37:56.625Z,85.87
2019-04-04T17:40:24.947Z,94.77
2019-04-04T17:42:53.298Z,88.17
2019-04-04T17:45:21.836Z,89.65
2019-04-04T17:47:50.112Z,82.57
2019-04-04T17:50:19.429Z,76.12
2019-04-04T17:52:48.263Z,78.28
2019-04-04T17:55:16.543Z,70.95
2019-04-04T17:57:44.803Z,75.03
2019-04-04T18:00:13.211Z,73.12
2019-04-04T18:02:41.466Z,73.78
2019-04-04T18:05:10.210Z,68.65
2019-04-04T18:07:38.450Z,68.57
2019-04-04T18:10:06.826Z,73.10
2019-04-04T18:12:40.532Z,76.87
2019-04-04T18:15:08.026Z,71.95
2019-04-04T18:17:36.269Z,69.12
2019-04-04T18:20:06.564Z,68.22
2019-04-04T18:22:34.801Z,67.45
2019-04-04T18:25:03.081Z,71.80
2019-04-04T18:27:31.310Z,70.47
2019-04-04T18:29:59.589Z,73.25
2019-04-04T18:32:27.829Z,75.62
2019-04-04T18:34:56.103Z,73.57
2019-04-04T18:37:24.364Z,73.90
2019-04-04T18:39:52.635Z,73.90
2019-04-04T18:42:20.883Z,74.12
2019-04-04T18:44:49.116Z,72.08
2019-04-04T18:47:17.399Z,77.27
2019-04-04T18:49:45.645Z,73.60
2019-04-04T18:52:13.943Z,81.72
2019-04-04T18:54:42.198Z,79.65
2019-04-04T18:57:13.070Z,81.87
2019-04-04T18:59:40.511Z,77.97
2019-04-04T19:02:08.784Z,84.45
2019-04-04T19:04:37.033Z,83.03
2019-04-04T19:07:05.325Z,83.95
2019-04-04T19:09:33.639Z,87.85
2019-04-04T19:12:01.924Z,89.17
2019-04-04T19:14:30.160Z,81.28
2019-04-04T19:16:58.444Z,85.70
2019-04-04T19:19:26.697Z,84.50
2019-04-04T19:21:54.970Z,85.28
2019-04-04T19:24:23.216Z,82.90
2019-04-04T19:26:51.498Z,87.88
2019-04-04T19:29:19.734Z,87.42
2019-04-04T19:31:48.018Z,86.57
2019-04-04T19:34:16.270Z,88.27
2019-04-04T19:36:44.572Z,100.82
2019-04-04T19:39:17.252Z,91.50
2019-04-04T19:41:45.493Z,83.05
2019-04-04T19:44:13.857Z,91.60
2019-04-04T19:46:42.093Z,96.78
2019-04-04T19:49:10.355Z,100.38
2019-04-04T19:51:38.622Z,97.47
2019-04-04T19:54:06.891Z,99.40
2019-04-04T19:56:35.132Z,101.60
2019-04-04T19:59:03.422Z,100.82
2019-04-04T20:01:31.664Z,100.27
2019-04-04T20:03:59.992Z,98.50
2019-04-04T20:06:28.230Z,104.67
2019-04-04T20:08:56.510Z,100.12
2019-04-04T20:11:24.761Z,104.10
2019-04-04T20:13:53.018Z,101.33
2019-04-04T20:16:21.302Z,100.70
2019-04-04T20:18:49.542Z,101.97
2019-04-04T20:21:17.831Z,103.92
2019-04-04T20:23:46.136Z,106.78
2019-04-04T20:26:14.433Z,100.85
2019-04-04T20:28:42.627Z,104.45
2019-04-04T20:31:10.890Z,99.90
2019-04-04T20:33:39.129Z,107.43
2019-04-04T20:36:07.417Z,107.85
2019-04-04T20:38:35.705Z,113.12
2019-04-04T20:41:04.047Z,105.47
2019-04-04T20:43:42.777Z,101.45
2019-04-04T20:46:02.833Z,104.00
2019-04-04T20:48:31.089Z,105.67
2019-04-04T20:50:59.365Z,98.90
2019-04-04T20:53:27.625Z,103.02
2019-04-04T20:55:55.940Z,106.87
2019-04-04T20:58:24.167Z,104.50
2019-04-04T21:00:52.429Z,116.70
2019-04-04T21:03:20.695Z,113.70
2019-04-04T21:05:48.938Z,114.97
2019-04-04T21:08:17.218Z,111.92
2019-04-04T21:10:45.468Z,118.28
2019-04-04T21:13:13.748Z,117.60
2019-04-04T21:15:41.996Z,122.40
2019-04-04T21:18:10.276Z,126.87
2019-04-04T21:20:38.516Z,128.60
2019-04-04T21:23:06.790Z,126.00
2019-04-04T21:25:35.034Z,126.38
2019-04-04T21:28:03.334Z,123.78
2019-04-04T21:30:31.587Z,138.72
2019-04-04T21:32:59.858Z,130.52
2019-04-04T21:35:28.102Z,127.32
2019-04-04T21:37:56.384Z,127.90
2019-04-04T21:40:24.626Z,130.60
2019-04-04T21:42:52.926Z,121.72
2019-04-04T21:45:21.173Z,129.20
2019-04-04T21:47:49.449Z,132.00
2019-04-04T21:50:17.693Z,138.32
2019-04-04T21:52:45.988Z,141.50
2019-04-04T21:55:14.242Z,139.22
2019-04-04T21:57:42.481Z,141.47
2019-04-04T22:00:10.789Z,133.35
2019-04-04T22:02:39.060Z,151.25
2019-04-04T22:05:08.304Z,148.57
2019-04-04T22:07:36.587Z,161.85
2019-04-04T22:10:07.024Z,142.37
2019-04-04T22:12:35.292Z,159.55
2019-04-04T22:15:04.936Z,147.35
2019-04-04T22:17:33.201Z,172.10
2019-04-04T22:20:01.518Z,162.80
2019-04-04T22:22:29.796Z,165.22
2019-04-04T22:24:58.070Z,176.10
2019-04-04T22:27:26.374Z,178.95
2019-04-04T22:29:54.641Z,181.22
2019-04-04T22:32:22.942Z,185.97
2019-04-04T22:34:51.219Z,201.00
2019-04-04T22:37:19.532Z,198.87
2019-04-04T22:39:47.805Z,216.75
2019-04-04T22:42:16.239Z,202.90
2019-04-04T22:44:44.507Z,196.43
2019-04-04T22:47:12.819Z,223.32
2019-04-04T22:49:41.087Z,211.52
2019-04-04T22:52:09.405Z,217.40
2019-04-04T22:54:37.678Z,212.27
2019-04-04T22:57:06.004Z,216.15
2019-04-04T22:59:34.264Z,195.92
2019-04-04T23:02:02.545Z,223.70
2019-04-04T23:04:30.853Z,191.25
2019-04-04T23:06:59.119Z,200.35
2019-04-04T23:09:27.419Z,191.80
2019-04-04T23:11:55.695Z,202.25
2019-04-04T23:14:24.002Z,206.07
2019-04-04T23:16:52.273Z,190.15
2019-04-04T23:19:20.560Z,203.05
2019-04-04T23:21:48.838Z,207.15
2019-04-04T23:24:17.144Z,185.07
2019-04-04T23:26:45.415Z,191.90
2019-04-04T23:29:13.699Z,198.45
2019-04-04T23:31:42.030Z,191.10
2019-04-04T23:34:10.313Z,198.93
2019-04-04T23:36:38.610Z,195.47
2019-04-04T23:39:07.354Z,181.30
2019-04-04T23:41:35.665Z,176.02
2019-04-04T23:44:03.939Z,186.73
2019-04-04T23:46:32.253Z,161.75
2019-04-04T23:49:00.556Z,173.25
2019-04-04T23:51:28.837Z,175.90
2019-04-04T23:53:57.347Z,173.22
2019-04-04T23:56:25.618Z,169.43
2019-04-04T23:58:53.925Z,166.85
